createdAt,value
2019-01-09T00:03:01.725Z,0.80
2019-01-09T00:09:07.607Z,0.90
2019-01-09T00:15:12.041Z,1.10
2019-01-09T00:21:17.167Z,1.20
2019-01-09T00:27:21.591Z,1.20
2019-01-09T00:33:25.931Z,1.30
2019-01-09T00:39:30.271Z,1.30
2019-01-09T00:45:34.583Z,1.30
2019-01-09T00:51:38.919Z,1.30
2019-01-09T00:57:43.256Z,1.40
2019-01-09T01:04:08.971Z,1.40
2019-01-09T01:10:22.157Z,1.50
2019-01-09T01:16:42.879Z,1.40
2019-01-09T01:22:59.600Z,1.30
2019-01-09T01:29:23.523Z,1.20
2019-01-09T01:35:54.454Z,1.10
2019-01-09T01:42:10.065Z,1.00
2019-01-09T01:48:23.543Z,1.00
2019-01-09T01:54:49.180Z,1.00
2019-01-09T02:01:25.293Z,1.00
2019-01-09T02:07:50.687Z,1.00
2019-01-09T02:14:13.293Z,0.90
2019-01-09T02:20:36.080Z,0.90
2019-01-09T02:26:44.392Z,0.80
2019-01-09T02:32:48.588Z,0.80
2019-01-09T02:38:52.802Z,0.80
2019-01-09T02:44:57.012Z,0.80
2019-01-09T02:51:01.199Z,0.80
2019-01-09T02:57:05.386Z,0.90
2019-01-09T03:03:09.734Z,0.80
2019-01-09T03:09:14.145Z,0.70
2019-01-09T03:15:18.404Z,0.70
2019-01-09T03:21:22.670Z,0.70
2019-01-09T03:27:27.800Z,0.60
2019-01-09T03:33:32.005Z,0.60
2019-01-09T03:39:36.274Z,0.60
2019-01-09T03:45:40.564Z,0.60
2019-01-09T03:51:44.820Z,0.60
2019-01-09T03:57:49.032Z,0.70
2019-01-09T04:03:53.458Z,0.70
2019-01-09T04:09:57.656Z,0.70
2019-01-09T04:16:01.921Z,0.70
2019-01-09T04:22:06.208Z,0.70
2019-01-09T04:28:12.084Z,0.70
2019-01-09T04:34:16.287Z,0.70
2019-01-09T04:40:20.544Z,0.60
2019-01-09T04:46:24.760Z,0.70
2019-01-09T04:52:28.977Z,0.60
2019-01-09T04:58:33.333Z,0.60
2019-01-09T05:04:37.588Z,0.60
2019-01-09T05:10:41.807Z,0.60
2019-01-09T05:16:46.024Z,0.50
2019-01-09T05:22:50.270Z,0.50
2019-01-09T05:28:55.320Z,0.40
2019-01-09T05:34:59.608Z,0.40
2019-01-09T05:41:03.820Z,0.50
2019-01-09T05:47:08.036Z,0.50
2019-01-09T05:53:12.248Z,0.60
2019-01-09T05:59:16.463Z,0.60
2019-01-09T06:05:20.734Z,0.50
2019-01-09T06:11:24.940Z,0.60
2019-01-09T06:17:29.154Z,0.60
2019-01-09T06:23:33.464Z,0.60
2019-01-09T06:29:38.520Z,0.60
2019-01-09T06:35:42.804Z,0.60
2019-01-09T06:41:47.059Z,0.70
2019-01-09T06:47:51.284Z,0.70
2019-01-09T06:53:55.529Z,0.80
2019-01-09T06:59:59.797Z,0.90
2019-01-09T07:06:04.008Z,0.90
2019-01-09T07:12:08.224Z,0.90
2019-01-09T07:18:12.412Z,0.90
2019-01-09T07:24:16.647Z,0.90
2019-01-09T07:30:21.751Z,0.90
2019-01-09T07:36:26.031Z,1.00
2019-01-09T07:42:30.252Z,1.00
2019-01-09T07:48:34.485Z,1.00
2019-01-09T07:54:38.696Z,1.10
2019-01-09T08:00:42.916Z,1.10
2019-01-09T08:06:47.146Z,1.10
2019-01-09T08:12:51.423Z,1.10
2019-01-09T08:18:55.693Z,1.10
2019-01-09T08:24:59.888Z,1.20
2019-01-09T08:31:04.969Z,1.40
2019-01-09T08:37:09.260Z,1.50
2019-01-09T08:43:13.527Z,1.70
2019-01-09T08:49:17.736Z,1.90
2019-01-09T08:55:21.952Z,2.20
2019-01-09T09:01:26.208Z,2.40
2019-01-09T09:07:30.468Z,2.60
2019-01-09T09:13:36.524Z,2.60
2019-01-09T09:19:40.787Z,2.80
2019-01-09T09:25:45.075Z,3.00
2019-01-09T09:31:50.036Z,4.20
2019-01-09T09:37:54.263Z,4.60
2019-01-09T09:43:58.480Z,5.20
2019-01-09T09:50:02.693Z,5.30
2019-01-09T09:56:06.984Z,4.60
2019-01-09T10:02:11.245Z,3.90
2019-01-09T10:08:15.480Z,3.20
2019-01-09T10:14:19.771Z,3.00
2019-01-09T10:20:24.037Z,2.90
2019-01-09T10:26:28.268Z,2.80
2019-01-09T10:32:33.323Z,2.80
2019-01-09T10:38:38.125Z,2.80
2019-01-09T10:44:42.676Z,2.80
2019-01-09T10:50:46.897Z,2.90
2019-01-09T10:56:51.189Z,3.20
2019-01-09T11:02:55.372Z,3.30
2019-01-09T11:08:59.556Z,3.20
2019-01-09T11:15:04.840Z,3.10
2019-01-09T11:21:09.033Z,3.10
2019-01-09T11:27:13.240Z,3.10
2019-01-09T11:33:18.304Z,3.10
2019-01-09T11:39:22.585Z,3.20
2019-01-09T11:45:26.802Z,3.30
2019-01-09T11:51:31.183Z,3.40
2019-01-09T11:57:35.405Z,3.60
2019-01-09T12:03:39.668Z,3.80
2019-01-09T12:09:43.929Z,3.80
2019-01-09T12:15:48.148Z,3.70
2019-01-09T12:21:52.404Z,4.00
2019-01-09T12:27:56.619Z,4.10
2019-01-09T12:34:01.652Z,4.20
2019-01-09T12:40:07.548Z,4.10
2019-01-09T12:46:11.768Z,4.20
2019-01-09T12:52:15.984Z,4.30
2019-01-09T12:58:20.277Z,4.10
2019-01-09T13:04:24.494Z,3.90
2019-01-09T13:10:28.708Z,3.90
2019-01-09T13:16:32.892Z,3.80
2019-01-09T13:22:37.085Z,3.80
2019-01-09T13:28:41.389Z,3.60
2019-01-09T13:34:46.484Z,3.40
2019-01-09T13:40:50.789Z,3.40
2019-01-09T13:46:55.006Z,3.40
2019-01-09T13:52:59.301Z,3.40
2019-01-09T13:59:03.505Z,3.30
2019-01-09T14:05:08.761Z,3.10
2019-01-09T14:11:12.968Z,3.00
2019-01-09T14:17:17.192Z,2.90
2019-01-09T14:23:21.532Z,2.80
2019-01-09T14:29:25.839Z,2.70
2019-01-09T14:35:30.811Z,2.60
2019-01-09T14:41:35.020Z,2.50
2019-01-09T14:47:39.365Z,2.40
2019-01-09T14:53:43.556Z,2.30
2019-01-09T14:59:47.880Z,2.20
2019-01-09T15:05:52.231Z,2.10
2019-01-09T15:11:56.460Z,2.10
2019-01-09T15:18:00.676Z,2.10
2019-01-09T15:24:08.554Z,1.90
2019-01-09T15:30:23.339Z,1.80
2019-01-09T15:36:27.792Z,1.70
2019-01-09T15:42:32.025Z,1.60
2019-01-09T15:48:36.248Z,1.50
2019-01-09T15:54:40.467Z,1.40
2019-01-09T16:00:44.683Z,1.30
2019-01-09T16:06:48.868Z,1.30
2019-01-09T16:12:53.093Z,1.20
2019-01-09T16:18:57.417Z,1.10
2019-01-09T16:25:01.688Z,0.90
2019-01-09T16:31:12.577Z,0.80
2019-01-09T16:37:18.522Z,0.60
2019-01-09T16:43:22.795Z,0.50
2019-01-09T16:49:28.160Z,0.50
2019-01-09T16:55:32.850Z,0.50
2019-01-09T17:01:37.150Z,0.40
2019-01-09T17:07:41.501Z,0.60
2019-01-09T17:13:45.947Z,0.40
2019-01-09T17:19:50.244Z,0.30
2019-01-09T17:25:54.507Z,0.30
2019-01-09T17:31:58.800Z,0.20
2019-01-09T17:38:03.973Z,0.20
2019-01-09T17:44:08.590Z,0.10
2019-01-09T17:50:19.224Z,0.00
2019-01-09T17:56:23.524Z,0.00
2019-01-09T18:02:27.899Z,0.10
2019-01-09T18:08:32.244Z,-0.10
2019-01-09T18:14:36.553Z,-0.10
2019-01-09T18:20:40.856Z,-0.10
2019-01-09T18:26:45.291Z,-0.20
2019-01-09T18:32:59.744Z,-0.20
2019-01-09T18:39:10.116Z,-0.20
2019-01-09T18:45:26.932Z,-0.20
2019-01-09T18:51:40.436Z,-0.20
2019-01-09T18:57:44.812Z,-0.30
2019-01-09T19:03:49.116Z,-0.50
2019-01-09T19:09:53.528Z,-0.80
2019-01-09T19:15:57.755Z,-1.00
2019-01-09T19:22:02.065Z,-1.10
2019-01-09T19:28:06.479Z,-1.20
2019-01-09T19:34:11.315Z,-1.40
2019-01-09T19:40:15.642Z,-1.50
2019-01-09T19:46:19.960Z,-1.70
2019-01-09T19:52:24.193Z,-1.70
2019-01-09T19:58:28.468Z,-1.70
2019-01-09T20:04:32.772Z,-1.70
2019-01-09T20:10:37.132Z,-1.70
2019-01-09T20:16:39.761Z,-1.60
2019-01-09T20:22:41.264Z,-1.50
2019-01-09T20:28:42.945Z,-1.40
2019-01-09T20:34:44.432Z,-1.30
2019-01-09T20:40:46.641Z,-1.20
2019-01-09T20:46:48.166Z,-1.20
2019-01-09T20:52:50.029Z,-1.20
2019-01-09T20:58:51.899Z,-1.10
2019-01-09T21:04:53.269Z,-1.00
2019-01-09T21:10:54.796Z,-0.90
2019-01-09T21:16:56.186Z,-1.00
2019-01-09T21:22:57.592Z,-1.00
2019-01-09T21:28:59.205Z,-1.20
2019-01-09T21:35:00.748Z,-1.40
2019-01-09T21:41:03.194Z,-1.50
2019-01-09T21:47:04.987Z,-1.60
2019-01-09T21:53:06.322Z,-1.80
2019-01-09T21:59:07.705Z,-2.10
2019-01-09T22:05:09.076Z,-2.30
2019-01-09T22:11:10.456Z,-2.40
2019-01-09T22:17:13.066Z,-2.30
2019-01-09T22:23:14.473Z,-2.30
2019-01-09T22:29:16.184Z,-2.30
2019-01-09T22:35:18.304Z,-2.20
2019-01-09T22:41:20.553Z,-2.20
2019-01-09T22:47:21.964Z,-2.20
2019-01-09T22:53:23.288Z,-2.30
2019-01-09T22:59:24.586Z,-2.20
2019-01-09T23:05:26.032Z,-2.10
2019-01-09T23:11:27.402Z,-2.10
2019-01-09T23:17:28.847Z,-2.10
2019-01-09T23:23:30.248Z,-2.00
2019-01-09T23:29:31.761Z,-2.00
2019-01-09T23:35:33.889Z,-2.00
2019-01-09T23:41:36.249Z,-1.90
2019-01-09T23:47:37.640Z,-2.00
2019-01-09T23:53:38.944Z,-2.00
2019-01-09T23:59:40.253Z,-2.00
